Flight Track Log - Related Links

Times and Time Zones

All times are in EDT time to prevent confusion due to time zone crossing. See the AAL832 flight status page for this flight to view local times or setup timezone preferences in your user account.

Time Position Orientation Groundspeed Altitude Reporting Facility
EDT Latitude Longitude Course Direction KTS MPH feet Rate Location/Type
Tue 05:25:16 PM 41.9620 -87.8890 217° Southwest 135 155  Level FlightAware ADS-B
Tue 05:25:27 PM 41.9570 -87.8950 222° Southwest 97 112 3,643 Level FlightAware ADS-B
Tue 05:25:44 PM 41.9440 -87.9040 207° Southwest 165 190 1,700 3,733 Climbing FlightAware ADS-B
Tue 05:26:12 PM 41.9220 -87.9020 176° South 188 216 2,800 2,125 Climbing FlightAware ADS-B
Tue 05:26:32 PM 41.9040 -87.9000 175° South 218 251 3,400 1,950 Climbing FlightAware ADS-B
Tue 05:26:52 PM 41.8810 -87.8970 174° South 250 288 4,100 2,500 Climbing FlightAware ADS-B
Tue 05:27:08 PM 41.8620 -87.8920 169° South 264 304 4,900 3,429 Climbing FlightAware ADS-B
Tue 05:27:20 PM 41.8480 -87.8840 157° South 268 308 5,700 4,313 Climbing FlightAware ADS-B
Tue 05:27:40 PM 41.8250 -87.8690 154° Southeast 268 308 7,200 3,818 Climbing FlightAware ADS-B
Tue 05:28:04 PM 41.7970 -87.8530 157° South 277 319 8,500 3,273 Climbing FlightAware ADS-B
Tue 05:28:24 PM 41.7730 -87.8450 166° South 283 326 9,600 2,897 Climbing FlightAware ADS-B
Tue 05:29:02 PM 41.7240 -87.8480 183° South 306 352 11,300 3,043 Climbing FlightAware ADS-B
Tue 05:29:33 PM 41.6770 -87.8530 185° South 310 357 13,100 3,000 Climbing FlightAware ADS-B
Tue 05:30:18 PM 41.6130 -87.8510 179° South 332 382 15,100 2,625 Climbing FlightAware ADS-B
Tue 05:30:53 PM 41.5560 -87.8370 170° South 354 407 16,600 2,435 Climbing FlightAware ADS-B
Tue 05:31:27 PM 41.4990 -87.8240 170° South 372 428 17,900 2,314 Climbing FlightAware ADS-B
Tue 05:32:03 PM 41.4360 -87.8100 171° South 388 447 19,300 1,800 Climbing FlightAware ADS-B
Tue 05:32:37 PM 41.3760 -87.7960 170° South 398 458 20,000 1,304 Climbing FlightAware ADS-B
Tue 05:33:12 PM 41.3120 -87.7820 171° South 400 460 20,800 1,739 Climbing FlightAware ADS-B
Tue 05:33:46 PM 41.2470 -87.7670 170° South 405 466 22,000 2,083 Climbing FlightAware ADS-B
Tue 05:34:24 PM 41.1760 -87.7500 170° South 413 475 23,300 2,143 Climbing FlightAware ADS-B
Tue 05:34:56 PM 41.1190 -87.7370 170° South 418 481 24,500 2,063 Climbing FlightAware ADS-B
Tue 05:35:28 PM 41.0580 -87.7240 171° South 423 487 25,500 1,971 Climbing FlightAware ADS-B
Tue 05:36:06 PM 40.9830 -87.7070 170° South 430 495 26,800 2,027 Climbing FlightAware ADS-B
Tue 05:36:42 PM 40.9080 -87.6900 170° South 434 499 28,000 1,870 Climbing FlightAware ADS-B
Tue 05:37:23 PM 40.8300 -87.6720 170° South 436 502 29,200 1,870 Climbing FlightAware ADS-B
Tue 05:37:59 PM 40.7580 -87.6560 170° South 435 501 30,400 1,875 Climbing FlightAware ADS-B
Tue 05:38:27 PM 40.7010 -87.6430 170° South 435 501 31,200 1,655 Climbing FlightAware ADS-B
Tue 05:38:57 PM 40.6410 -87.6300 171° South 438 504 32,000 1,521 Climbing FlightAware ADS-B
Tue 05:39:38 PM 40.5610 -87.6120 170° South 440 506 33,000 1,500 Climbing FlightAware ADS-B
Tue 05:40:13 PM 40.4880 -87.5960 171° South 440 506 33,900 1,652 Climbing FlightAware ADS-B
Tue 05:40:47 PM 40.4190 -87.5800 170° South 438 504 34,900 1,629 Climbing FlightAware ADS-B
Tue 05:41:23 PM 40.3480 -87.5640 170° South 436 502 35,800 1,545 Climbing FlightAware ADS-B
Tue 05:41:53 PM 40.2880 -87.5510 171° South 433 498 36,600 1,059 Climbing FlightAware ADS-B
Tue 05:42:31 PM 40.2160 -87.5350 170° South 431 496 37,000 343 Climbing FlightAware ADS-B
Tue 05:43:03 PM 40.1520 -87.5210 171° South 435 501 37,000  Level FlightAware ADS-B
Tue 05:43:43 PM 40.0710 -87.5030 170° South 437 503 37,000  Level FlightAware ADS-B
Tue 05:44:14 PM 40.0110 -87.4900 171° South 437 503 37,000  Level FlightAware ADS-B
Tue 05:44:53 PM 39.9320 -87.4730 171° South 436 502 37,000  Level FlightAware ADS-B
Tue 05:45:25 PM 39.8680 -87.4590 170° South 436 502 37,000 441 Level FlightAware ADS-B
Tue 05:46:01 PM 39.7960 -87.4430 170° South 437 503 37,500 815 Climbing FlightAware ADS-B
Tue 05:46:46 PM 39.7080 -87.4240 171° South 439 505 38,100 857 Climbing FlightAware ADS-B
Tue 05:47:18 PM 39.6420 -87.4100 171° South 440 506 38,600 771 Climbing FlightAware ADS-B
Tue 05:47:56 PM 39.5660 -87.3930 170° South 443 510 39,000 308 Climbing FlightAware ADS-B
Tue 05:48:36 PM 39.4850 -87.3760 171° South 443 510 39,000  Level FlightAware ADS-B
Tue 05:49:11 PM 39.4170 -87.3610 170° South 444 511 39,000  Level FlightAware ADS-B
Tue 05:49:45 PM 39.3460 -87.3450 170° South 443 510 39,000  Level FlightAware ADS-B
Tue 05:50:19 PM 39.2790 -87.3310 171° South 444 511 39,000  Level FlightAware ADS-B
Tue 05:50:55 PM 39.2090 -87.3160 171° South 442 509 39,000  Level FlightAware ADS-B
Tue 05:51:31 PM 39.1340 -87.3010 171° South 441 507 39,000  Level FlightAware ADS-B
Tue 05:52:03 PM 39.0700 -87.2870 170° South 440 506 39,000  Level FlightAware ADS-B
Tue 05:52:40 PM 38.9920 -87.2700 170° South 437 503 39,000  Level FlightAware ADS-B
Tue 05:53:17 PM 38.9210 -87.2550 171° South 435 501 39,000  Level FlightAware ADS-B
Tue 05:53:52 PM 38.8480 -87.2390 170° South 435 501 39,000  Level FlightAware ADS-B
Tue 05:54:25 PM 38.7840 -87.2260 171° South 433 498 39,000  Level FlightAware ADS-B
Tue 05:55:01 PM 38.7130 -87.2100 170° South 434 499 39,000  Level FlightAware ADS-B
Tue 05:55:37 PM 38.6410 -87.1950 171° South 435 501 39,000  Level FlightAware ADS-B
Tue 05:56:13 PM 38.5700 -87.1800 171° South 436 502 39,000  Level FlightAware ADS-B
Tue 05:56:46 PM 38.5030 -87.1660 171° South 437 503 39,000  Level FlightAware ADS-B
Tue 05:57:21 PM 38.4330 -87.1520 171° South 438 504 39,000  Level FlightAware ADS-B
Tue 05:57:55 PM 38.3670 -87.1380 171° South 437 503 39,000  Level FlightAware ADS-B
Tue 05:58:31 PM 38.2940 -87.1220 170° South 435 501 39,000  Level FlightAware ADS-B
Tue 05:59:07 PM 38.2220 -87.1070 171° South 433 498 39,000  Level FlightAware ADS-B
Tue 05:59:43 PM 38.1510 -87.0930 171° South 432 497 39,000  Level FlightAware ADS-B
Tue 06:00:14 PM 38.0890 -87.0800 171° South 435 501 39,000  Level FlightAware ADS-B
Tue 06:00:51 PM 38.0150 -87.0650 171° South 439 505 39,000  Level FlightAware ADS-B
Tue 06:01:27 PM 37.9430 -87.0490 170° South 441 507 39,000  Level FlightAware ADS-B
Tue 06:01:59 PM 37.8810 -87.0370 171° South 437 503 39,000  Level FlightAware ADS-B
Tue 06:02:37 PM 37.8040 -87.0220 171° South 431 496 39,000  Level FlightAware ADS-B
Tue 06:03:09 PM 37.7410 -87.0080 170° South 429 494 39,000  Level FlightAware ADS-B
Tue 06:03:37 PM 37.6850 -86.9970 171° South 425 489 39,000  Level FlightAware ADS-B
Tue 06:04:18 PM 37.6054 -86.9800 170° South 426 490 39,000  Level FlightAware ADS-B
Tue 06:04:54 PM 37.5349 -86.9656 171° South 438 504 39,000  Level FlightAware ADS-B
Tue 06:05:25 PM 37.4730 -86.9530 171° South 445 512 39,000  Level FlightAware ADS-B
Tue 06:05:52 PM 37.4162 -86.9411 171° South 446 513 39,000  Level FlightAware ADS-B
Tue 06:06:31 PM 37.3380 -86.9250 171° South 437 503 39,000  Level FlightAware ADS-B
Tue 06:07:07 PM 37.2670 -86.9110 171° South 430 495 39,000  Level FlightAware ADS-B
Tue 06:07:42 PM 37.1990 -86.8970 171° South 417 480 39,000  Level FlightAware ADS-B
Tue 06:08:19 PM 37.1310 -86.8830 171° South 405 466 39,000  Level FlightAware ADS-B
Tue 06:08:51 PM 37.0720 -86.8710 171° South 403 464 39,000  Level FlightAware ADS-B
Tue 06:09:27 PM 37.0040 -86.8580 171° South 410 472 39,000  Level FlightAware ADS-B
Tue 06:10:04 PM 36.9360 -86.8440 171° South 412 474 39,000  Level FlightAware ADS-B
Tue 06:10:16 PM 36.9126 -86.8395 171° South 411 473 39,000  Level FlightAware ADS-B
Tue 06:10:46 PM 36.8562 -86.8280 171° South 410 472 39,000  Level FlightAware ADS-B
Tue 06:11:16 PM 36.7995 -86.8166 171° South 416 479 39,000  Level FlightAware ADS-B
Tue 06:11:46 PM 36.7422 -86.8052 171° South 418 481 39,000  Level FlightAware ADS-B
Tue 06:12:16 PM 36.6845 -86.7936 171° South 418 481 39,000  Level FlightAware ADS-B
Tue 06:12:46 PM 36.6270 -86.7819 171° South 415 478 39,000  Level FlightAware ADS-B
Tue 06:13:33 PM 36.5390 -86.7640 171° South 419 482 39,000  Level FlightAware ADS-B
Tue 06:14:10 PM 36.4656 -86.7499 171° South 414 476 39,000  Level FlightAware ADS-B
Tue 06:14:44 PM 36.4010 -86.7370 171° South 431 496 39,000  Level FlightAware ADS-B
Tue 06:15:16 PM 36.3370 -86.7240 171° South 431 496 39,000  Level FlightAware ADS-B
Tue 06:15:54 PM 36.2620 -86.7100 171° South 431 496 39,000  Level FlightAware ADS-B
Tue 06:16:30 PM 36.1910 -86.6960 171° South 430 495 39,000  Level FlightAware ADS-B
Tue 06:17:06 PM 36.1230 -86.6680 162° South 449 517 39,000  Level FlightAware ADS-B
Tue 06:17:19 PM 36.0992 -86.6496 148° Southeast 456 525 39,000  Level FlightAware ADS-B
Tue 06:17:49 PM 36.0479 -86.6021 143° Southeast 459 528 39,000  Level FlightAware ADS-B
Tue 06:18:20 PM 35.9960 -86.5537 143° Southeast 458 527 39,000  Level FlightAware ADS-B
Tue 06:18:55 PM 35.9362 -86.4983 143° Southeast 458 527 39,000  Level FlightAware ADS-B
Tue 06:19:36 PM 35.8690 -86.4370 144° Southeast 460 529 39,000  Level FlightAware ADS-B
Tue 06:19:58 PM 35.8285 -86.3987 143° Southeast 460 529 39,000  Level FlightAware ADS-B
Tue 06:20:28 PM 35.7774 -86.3515 143° Southeast 462 532 39,000  Level FlightAware ADS-B
Tue 06:20:59 PM 35.7248 -86.3032 143° Southeast 463 533 39,000  Level FlightAware ADS-B
Tue 06:21:30 PM 35.6722 -86.2545 143° Southeast 464 534 39,000  Level FlightAware ADS-B
Tue 06:22:00 PM 35.6204 -86.2069 143° Southeast 464 534 39,000  Level FlightAware ADS-B
Tue 06:22:40 PM 35.5509 -86.1432 143° Southeast 464 534 39,000  Level FlightAware ADS-B
Tue 06:23:10 PM 35.5000 -86.0970 144° Southeast 461 531 39,000  Level FlightAware ADS-B
Tue 06:23:36 PM 35.4557 -86.0563 143° Southeast 464 534 39,000  Level FlightAware ADS-B
Tue 06:24:06 PM 35.4043 -86.0095 143° Southeast 461 531 39,000  Level FlightAware ADS-B
Tue 06:24:38 PM 35.3501 -85.9602 143° Southeast 461 531 39,000  Level FlightAware ADS-B
Tue 06:25:09 PM 35.2959 -85.9108 143° Southeast 462 532 39,000  Level FlightAware ADS-B
Tue 06:25:40 PM 35.2441 -85.8641 144° Southeast 460 529 39,000  Level FlightAware ADS-B
Tue 06:26:33 PM 35.1527 -85.7815 144° Southeast 459 528 39,000  Level FlightAware ADS-B
Tue 06:27:03 PM 35.1012 -85.7350 144° Southeast 458 527 39,000  Level FlightAware ADS-B
Tue 06:27:33 PM 35.0504 -85.6891 144° Southeast 457 526 39,000  Level FlightAware ADS-B
Tue 06:28:04 PM 34.9988 -85.6425 144° Southeast 456 525 39,000  Level FlightAware ADS-B
Tue 06:28:35 PM 34.9465 -85.5954 144° Southeast 459 528 39,000  Level FlightAware ADS-B
Tue 06:29:06 PM 34.8928 -85.5472 144° Southeast 461 531 39,000  Level FlightAware ADS-B
Tue 06:29:36 PM 34.8408 -85.5007 144° Southeast 464 534 39,000  Level FlightAware ADS-B
Tue 06:30:06 PM 34.7885 -85.4539 144° Southeast 463 533 39,000  Level FlightAware ADS-B
Tue 06:30:38 PM 34.7341 -85.4054 144° Southeast 463 533 39,000  Level FlightAware ADS-B
Tue 06:31:09 PM 34.6802 -85.3574 144° Southeast 462 532 39,000  Level FlightAware ADS-B
Tue 06:31:39 PM 34.6284 -85.3111 144° Southeast 461 531 39,000  Level FlightAware ADS-B
Tue 06:32:11 PM 34.5741 -85.2627 144° Southeast 462 532 39,000  Level FlightAware ADS-B
Tue 06:33:02 PM 34.4860 -85.1850 144° Southeast 461 531 39,000  Level FlightAware ADS-B
Tue 06:33:31 PM 34.4352 -85.1398 144° Southeast 462 532 39,000  Level FlightAware ADS-B
Tue 06:34:04 PM 34.3797 -85.0907 144° Southeast 464 534 39,000  Level FlightAware ADS-B
Tue 06:34:41 PM 34.3156 -85.0342 144° Southeast 465 535 39,000  Level FlightAware ADS-B
Tue 06:35:11 PM 34.2620 -84.9871 144° Southeast 467 537 39,000  Level FlightAware ADS-B
Tue 06:35:41 PM 34.2091 -84.9407 144° Southeast 469 540 39,000  Level FlightAware ADS-B
Tue 06:36:13 PM 34.1534 -84.8919 144° Southeast 471 542 39,000  Level FlightAware ADS-B
Tue 06:36:56 PM 34.0776 -84.8254 144° Southeast 471 542 39,000  Level FlightAware ADS-B
Tue 06:37:55 PM 33.9738 -84.7347 144° Southeast 472 543 39,000  Level FlightAware ADS-B
Tue 06:38:35 PM 33.9038 -84.6737 144° Southeast 472 543 39,000  Level FlightAware ADS-B
Tue 06:39:11 PM 33.8404 -84.6187 144° Southeast 466 536 39,000  Level FlightAware ADS-B
Tue 06:39:42 PM 33.7855 -84.5711 144° Southeast 466 536 39,000  Level FlightAware ADS-B
Tue 06:40:19 PM 33.7212 -84.5152 144° Southeast 466 536 39,000  Level FlightAware ADS-B
Tue 06:40:50 PM 33.6676 -84.4689 144° Southeast 465 535 39,000  Level FlightAware ADS-B
Tue 06:41:09 PM 33.6339 -84.4437 148° Southeast 460 529 39,000  Level FlightAware ADS-B
Tue 06:41:51 PM 33.5520 -84.4029 157° South 453 521 39,000  Level FlightAware ADS-B
Tue 06:42:21 PM 33.4928 -84.3780 161° South 452 520 39,000  Level FlightAware ADS-B
Tue 06:43:06 PM 33.4040 -84.3410 161° South 450 518 39,000  Level FlightAware ADS-B
Tue 06:43:16 PM 33.3841 -84.3327 161° South 451 519 39,000  Level FlightAware ADS-B
Tue 06:44:14 PM 33.2720 -84.2860 161° South 449 517 39,000  Level FlightAware ADS-B
Tue 06:44:26 PM 33.2475 -84.2758 161° South 449 517 39,000  Level FlightAware ADS-B
Tue 06:45:27 PM 33.1255 -84.2253 161° South 451 519 39,000  Level FlightAware ADS-B
Tue 06:46:16 PM 33.0310 -84.1860 161° South 452 520 39,000  Level FlightAware ADS-B
Tue 06:46:52 PM 32.9590 -84.1560 161° South 453 521 39,000  Level FlightAware ADS-B
Tue 06:47:28 PM 32.8890 -84.1200 157° South 458 527 39,000  Level FlightAware ADS-B
Tue 06:48:02 PM 32.8300 -84.0700 145° Southeast 465 535 39,000  Level FlightAware ADS-B
Tue 06:48:43 PM 32.7700 -84.0050 138° Southeast 467 537 39,000 395 Level FlightAware ADS-B
Tue 06:49:18 PM 32.7100 -83.9430 139° Southeast 463 533 39,500 831 Climbing FlightAware ADS-B
Tue 06:49:48 PM 32.6610 -83.8900 138° Southeast 463 533 39,900 337 Climbing FlightAware ADS-B
Tue 06:50:47 PM 32.5760 -83.7980 138° Southeast 465 535 40,000 63 Climbing FlightAware ADS-B
Tue 06:51:23 PM 32.5280 -83.7450 137° Southeast 465 535 40,000  Level FlightAware ADS-B
Tue 06:52:00 PM 32.4480 -83.6650 140° Southeast 464 534 40,000  Level FlightAware ADS-B
Tue 06:52:31 PM 32.4050 -83.6190 138° Southeast 464 534 40,000  Level FlightAware ADS-B
Tue 06:53:07 PM 32.3570 -83.5670 138° Southeast 464 534 40,000  Level FlightAware ADS-B
Tue 06:53:43 PM 32.3080 -83.5150 138° Southeast 464 534 40,000  Level FlightAware ADS-B
Tue 06:54:19 PM 32.2590 -83.4630 138° Southeast 464 534 40,000  Level FlightAware ADS-B
Tue 06:54:53 PM 32.2130 -83.4140 138° Southeast 464 534 40,000  Level FlightAware ADS-B
Tue 06:55:29 PM 32.1640 -83.3620 138° Southeast 464 534 40,000  Level FlightAware ADS-B
Tue 06:56:05 PM 32.1150 -83.3100 138° Southeast 464 534 40,000  Level FlightAware ADS-B
Tue 06:56:41 PM 32.0660 -83.2590 139° Southeast 464 534 40,000  Level FlightAware ADS-B
Tue 06:57:17 PM 32.0180 -83.2070 137° Southeast 464 534 40,000  Level FlightAware ADS-B
Tue 06:57:54 PM 31.9670 -83.1530 138° Southeast 464 534 40,000  Level FlightAware ADS-B
Tue 06:58:30 PM 31.9190 -83.1020 138° Southeast 464 534 40,000  Level FlightAware ADS-B
Tue 06:59:06 PM 31.8700 -83.0500 138° Southeast 464 534 40,000  Level FlightAware ADS-B
Tue 06:59:42 PM 31.8210 -82.9980 138° Southeast 464 534 40,000  Level FlightAware ADS-B
Tue 07:00:18 PM 31.7720 -82.9460 138° Southeast 464 534 40,000  Level FlightAware ADS-B
Tue 07:00:54 PM 31.7230 -82.8950 138° Southeast 464 534 40,000  Level FlightAware ADS-B
Tue 07:01:31 PM 31.6730 -82.8420 138° Southeast 464 534 40,000  Level FlightAware ADS-B
Tue 07:02:42 PM 31.4272 -82.6078 138° Southeast 465 535 40,000 -46 Level Jacksonville Center
Tue 07:03:42 PM 31.3328 -82.5156 140° Southeast 459 528 39,900  Descending Jacksonville Center
Tue 07:04:42 PM 31.2364 -82.4186 139° Southeast 459 528 40,000 50 Climbing Jacksonville Center
Tue 07:05:42 PM 31.1422 -82.3197 138° Southeast 454 522 40,000  Level Jacksonville Center
Tue 07:06:43 PM 31.0436 -82.2208 139° Southeast 454 522 40,000  Level Jacksonville Center
Tue 07:12:21 PM 30.4030 -81.7990 139° Southeast 474 545 40,000  Level FlightAware ADS-B
Tue 07:13:00 PM 30.3230 -81.7480 151° Southeast 475 547 40,000  Level FlightAware ADS-B
Tue 07:13:36 PM 30.2530 -81.7040 151° Southeast 476 548 40,000  Level FlightAware ADS-B
Tue 07:14:12 PM 30.1840 -81.6610 152° Southeast 476 548 40,000  Level FlightAware ADS-B
Tue 07:14:42 PM 30.1260 -81.6250 152° Southeast 477 549 40,000  Level FlightAware ADS-B
Tue 07:15:18 PM 30.0550 -81.5800 151° Southeast 475 547 40,000  Level FlightAware ADS-B
Tue 07:16:06 PM 29.9650 -81.5240 152° Southeast 474 545 40,000  Level FlightAware ADS-B
Tue 07:16:48 PM 29.8870 -81.4750 151° Southeast 471 542 40,000  Level FlightAware ADS-B
Tue 07:17:24 PM 29.8160 -81.4310 152° Southeast 469 540 40,000  Level FlightAware ADS-B
Tue 07:17:58 PM 29.7580 -81.3940 151° Southeast 469 540 40,000  Level FlightAware ADS-B
Tue 07:18:32 PM 29.6880 -81.3510 152° Southeast 468 539 40,000  Level FlightAware ADS-B
Tue 07:19:08 PM 29.6240 -81.3110 151° Southeast 466 536 40,000  Level FlightAware ADS-B
Tue 07:19:46 PM 29.5620 -81.2740 153° Southeast 466 536 40,000  Level FlightAware ADS-B
Tue 07:20:40 PM 29.4480 -81.2030 152° Southeast 465 535 40,000  Level FlightAware ADS-B
Tue 07:21:18 PM 29.3870 -81.1650 152° Southeast 465 535 40,000  Level FlightAware ADS-B
Tue 07:21:54 PM 29.3290 -81.1300 152° Southeast 465 535 40,000  Level FlightAware ADS-B
Tue 07:22:30 PM 29.2710 -81.0940 152° Southeast 465 535 40,000  Level FlightAware ADS-B
Tue 07:22:53 PM 29.2060 -81.0740 165° South 757 871 40,000  Level FlightAware ADS-B
Tue 07:23:43 PM 29.0780 -81.0220 160° South 463 533 40,000  Level FlightAware ADS-B
Tue 07:24:28 PM 28.9900 -80.9870 161° South 464 534 40,000  Level FlightAware ADS-B
Tue 07:25:07 PM 28.9170 -80.9580 161° South 465 535 40,000  Level FlightAware ADS-B
Tue 07:25:38 PM 28.8500 -80.9310 161° South 465 535 40,000  Level FlightAware ADS-B
Tue 07:26:18 PM 28.7650 -80.8970 161° South 464 534 40,000  Level FlightAware ADS-B
Tue 07:26:53 PM 28.6940 -80.8690 161° South 464 534 40,000  Level FlightAware ADS-B
Tue 07:27:28 PM 28.6240 -80.8410 161° South 461 531 40,000  Level FlightAware ADS-B
Tue 07:28:03 PM 28.5570 -80.8140 161° South 458 527 40,000  Level FlightAware ADS-B
Tue 07:28:43 PM 28.4740 -80.7810 161° South 457 526 40,000  Level FlightAware ADS-B
Tue 07:29:17 PM 28.4060 -80.7540 161° South 456 525 40,000  Level FlightAware ADS-B
Tue 07:29:59 PM 28.3270 -80.7230 161° South 454 522 40,000  Level FlightAware ADS-B
Tue 07:30:33 PM 28.2580 -80.6960 161° South 446 513 40,000  Level FlightAware ADS-B
Tue 07:31:13 PM 28.1740 -80.6620 160° South 444 511 40,000  Level FlightAware ADS-B
Tue 07:31:48 PM 28.1090 -80.6360 161° South 451 519 40,000  Level FlightAware ADS-B
Tue 07:32:30 PM 28.0300 -80.6100 164° South 451 519 40,000 -698 Level FlightAware ADS-B
Tue 07:33:14 PM 27.9400 -80.5790 163° South 451 519 39,000 -1,880 Descending FlightAware ADS-B
Tue 07:33:53 PM 27.8600 -80.5520 163° South 451 519 37,400 -2,854 Descending FlightAware ADS-B
Tue 07:34:57 PM 27.7790 -80.5320 168° South 450 518 34,100 -3,125 Descending FlightAware ADS-B
Tue 07:35:29 PM 27.6660 -80.5150 172° South 453 521 32,400 -3,038 Descending FlightAware ADS-B
Tue 07:36:16 PM 27.5630 -80.4990 172° South 455 524 30,100 -1,909 Descending FlightAware ADS-B
Tue 07:36:57 PM 27.4870 -80.4870 172° South 441 507 29,600 -2,548 Descending FlightAware ADS-B
Tue 07:37:29 PM 27.4160 -80.4690 167° South 414 476 27,000 -3,316 Descending FlightAware ADS-B
Tue 07:38:13 PM 27.3410 -80.4380 160° South 403 464 25,400 -2,182 Descending FlightAware ADS-B
Tue 07:38:57 PM 27.2640 -80.4050 159° South 399 459 23,800 -1,744 Descending FlightAware ADS-B
Tue 07:39:39 PM 27.1910 -80.3720 158° South 396 456 22,900 -1,183 Descending FlightAware ADS-B
Tue 07:40:08 PM 27.1400 -80.3490 158° South 398 458 22,400 -985 Descending FlightAware ADS-B
Tue 07:40:46 PM 27.0780 -80.3210 158° South 385 443 21,800 -960 Descending FlightAware ADS-B
Tue 07:41:23 PM 27.0110 -80.2920 159° South 380 437 21,200 -986 Descending FlightAware ADS-B
Tue 07:41:59 PM 26.9530 -80.2650 157° South 379 436 20,600 -1,015 Descending FlightAware ADS-B
Tue 07:42:28 PM 26.9030 -80.2430 159° South 383 441 20,100 -1,292 Descending FlightAware ADS-B
Tue 07:43:04 PM 26.8470 -80.2180 158° South 366 421 19,200 -1,840 Descending FlightAware ADS-B
Tue 07:43:43 PM 26.7820 -80.1900 159° South 365 420 17,800 -2,143 Descending FlightAware ADS-B
Tue 07:44:14 PM 26.7350 -80.1690 158° South 360 414 16,700 -2,215 Descending FlightAware ADS-B
Tue 07:44:48 PM 26.6820 -80.1450 158° South 346 398 15,400 -1,760 Descending FlightAware ADS-B
Tue 07:45:29 PM 26.6210 -80.1180 158° South 348 400 14,500 -1,114 Descending FlightAware ADS-B
Tue 07:45:58 PM 26.5770 -80.0990 159° South 348 400 14,100 -923 Descending FlightAware ADS-B
Tue 07:46:34 PM 26.5240 -80.0750 158° South 346 398 13,500 -943 Descending FlightAware ADS-B
Tue 07:47:08 PM 26.4730 -80.0530 159° South 338 389 13,000 -720 Descending FlightAware ADS-B
Tue 07:47:49 PM 26.4110 -80.0400 169° South 322 371 12,600 -930 Descending FlightAware ADS-B
Tue 07:48:19 PM 26.3670 -80.0320 171° South 309 356 11,900 -1,385 Descending FlightAware ADS-B
Tue 07:48:54 PM 26.3170 -80.0240 172° South 308 354 11,100 -1,378 Descending FlightAware ADS-B
Tue 07:49:33 PM 26.2610 -80.0160 173° South 288 331 10,200 -1,108 Descending FlightAware ADS-B
Tue 07:49:59 PM 26.2280 -80.0210 188° South 295 339 9,900 -391 Descending FlightAware ADS-B
Tue 07:50:19 PM 26.2010 -80.0280 193° South 286 329 9,900  Level FlightAware ADS-B
Tue 07:50:39 PM 26.1750 -80.0350 194° South 283 326 9,900  Level FlightAware ADS-B
Tue 07:51:04 PM 26.1430 -80.0440 194° South 284 327 9,900  Level FlightAware ADS-B
Tue 07:51:23 PM 26.1160 -80.0520 195° South 285 328 9,900  Level FlightAware ADS-B
Tue 07:51:44 PM 26.0890 -80.0600 195° South 286 329 9,900  Level FlightAware ADS-B
Tue 07:52:03 PM 26.0630 -80.0670 194° South 285 328 9,900 -545 Level FlightAware ADS-B
Tue 07:52:28 PM 26.0310 -80.0760 194° South 286 329 9,500 -878 Descending FlightAware ADS-B
Tue 07:52:44 PM 26.0120 -80.0820 196° South 279 321 9,300 -1,067 Descending FlightAware ADS-B
Tue 07:53:13 PM 25.9750 -80.0930 195° South 274 315 8,700 -1,385 Descending FlightAware ADS-B
Tue 07:53:23 PM 25.9640 -80.1000 210° Southwest 275 316 8,400 -1,500 Descending FlightAware ADS-B
Tue 07:53:29 PM 25.9590 -80.1050 222° Southwest 284 327 8,300 -1,091 Descending FlightAware ADS-B
Tue 07:53:34 PM 25.9550 -80.1100 228° Southwest 280 322 8,200 -1,200 Descending FlightAware ADS-B
Tue 07:53:44 PM 25.9470 -80.1230 236° Southwest 289 333 8,000 -900 Descending FlightAware ADS-B
Tue 07:53:54 PM 25.9400 -80.1360 239° Southwest 287 330 7,900 -167 Descending FlightAware ADS-B
Tue 07:54:20 PM 25.9230 -80.1660 238° Southwest 263 303 7,900  Level FlightAware ADS-B
Tue 07:54:39 PM 25.9130 -80.1900 245° Southwest 264 304 7,900  Level FlightAware ADS-B
Tue 07:54:59 PM 25.9050 -80.2160 251° West 260 299 7,900  Level FlightAware ADS-B
Tue 07:55:19 PM 25.8980 -80.2420 253° West 261 300 7,900 -400 Level FlightAware ADS-B
Tue 07:55:29 PM 25.8980 -80.2550 270° West 256 295 7,700 -1,600 Descending FlightAware ADS-B
Tue 07:55:34 PM 25.9000 -80.2620 288° West 257 296 7,500 -1,680 Descending FlightAware ADS-B
Tue 07:55:54 PM 25.9050 -80.2870 283° West 258 297 7,000 -1,500 Descending FlightAware ADS-B
Tue 07:56:14 PM 25.9110 -80.3130 284° West 256 295 6,500 -1,333 Descending FlightAware ADS-B
Tue 07:56:39 PM 25.9180 -80.3450 284° West 249 287 6,000 -1,364 Descending FlightAware ADS-B
Tue 07:56:58 PM 25.9230 -80.3690 283° West 246 283 5,500 -1,500 Descending FlightAware ADS-B
Tue 07:57:19 PM 25.9290 -80.3940 285° West 243 280 5,000 -1,463 Descending FlightAware ADS-B
Tue 07:57:39 PM 25.9340 -80.4180 283° West 241 277 4,500 -1,500 Descending FlightAware ADS-B
Tue 07:57:59 PM 25.9380 -80.4430 280° West 238 274 4,000 -1,600 Descending FlightAware ADS-B
Tue 07:58:24 PM 25.9260 -80.4680 242° Southwest 222 255 3,300 -1,800 Descending FlightAware ADS-B
Tue 07:58:29 PM 25.9220 -80.4720 222° Southwest 225 259 3,100 -2,000 Descending FlightAware ADS-B
Tue 07:58:33 PM 25.9170 -80.4750 208° Southwest 223 257 3,000 -857 Descending FlightAware ADS-B
Tue 07:58:43 PM 25.9080 -80.4770 191° South 198 228 2,900 -188 Descending FlightAware ADS-B
Tue 07:59:05 PM 25.8900 -80.4700 161° South 173 199 2,900  Level FlightAware ADS-B
Tue 07:59:21 PM 25.8820 -80.4600 132° Southeast 167 192 2,900  Level FlightAware ADS-B
Tue 07:59:40 PM 25.8730 -80.4470 128° Southeast 167 192 2,900 -750 Level FlightAware ADS-B
Tue 08:00:01 PM 25.8640 -80.4310 122° Southeast 173 199 2,400 -1,135 Descending FlightAware ADS-B
Tue 08:00:17 PM 25.8590 -80.4190 115° Southeast 168 193 2,200 -686 Descending FlightAware ADS-B
Tue 08:00:36 PM 25.8510 -80.4050 122° Southeast 166 191 2,000 -769 Descending FlightAware ADS-B
Tue 08:00:56 PM 25.8440 -80.3900 117° Southeast 167 192 1,700 -900 Descending FlightAware ADS-B
Tue 08:01:16 PM 25.8360 -80.3750 121° Southeast 166 191 1,400 -913 Descending FlightAware ADS-B
Tue 08:01:42 PM 25.8270 -80.3560 118° Southeast 148 170 1,000 -947 Descending FlightAware ADS-B
Tue 08:01:54 PM 25.8230 -80.3490 122° Southeast 142 163 800 -750 Descending FlightAware ADS-B
Tue 08:02:14 PM 25.8160 -80.3360 121° Southeast 142 163 600 -649 Descending FlightAware ADS-B
Tue 08:02:31 PM 25.8110 -80.3250 117° Southeast 140 161 400 -667 Descending FlightAware ADS-B
Tue 08:02:50 PM 25.8050 -80.3140 121° Southeast 138 159 200 -632 Descending FlightAware ADS-B
Tue 08:03:10 PM 25.7980 -80.3010 121° Southeast 141 162 -600 Descending FlightAware ADS-B

Login

Don't have an account? Register now (free) for customized features, flight alerts, and more!